Terminal Aerodrome Forecast
Issued by NWS Paducah, KY

Home | Current Version | Previous Version | Text Only | Print | Product List | Glossary On
Versions: 1 2 3 4 5 6 7 8 9 10 11 12 13 14 15 16 17 18 19 20 21
000
FTUS43 KPAH 302300
TAFPAH
TAF
KPAH 302324Z 3100/3124 17004KT P6SM VCSH SCT010 BKN060
     FM310130 17006KT 5SM SHRA BR BKN015
     FM311000 21004KT 3SM BR OVC009
     FM311600 24007KT P6SM BKN030=

USA.gov is the U.S. government's official web portal to all federal, state and local government web resources and services.